Selin D — 9HDX8 — position and weather

sailwx.info

Track history (hours):
 
Tides and Currents Weather Stations Pressure Air Temp Water Temp Dewpoint Dewpoint Depression Visibility Wind Speed Wind Dir Waves Ship Positions

Selin D

Last reported at 2018-May-28 01:39 UTC. Time now 2018-Jun-20 05:44 UTC.
Position N 24°31' E 061°56'.
Warning: this ship's position is 23 days out of date.

Length 113 m; draft 7.5 m.

Type: Ship. MMSI: 215872000.

Date/timePositionNaut miles runAvg speedWind from/ knotsBaromVisibWave heightAir tempDewpointWater temp
2018-May-28 01:39N 24°31' E 061°56'24 9.9
2018-May-27 23:11N 24°31' E 062°23'2110.0
2018-May-27 21:04N 24°32' E 062°46'110.0
2018-May-27 21:00N 24°32' E 062°47'510.1
2018-May-27 20:29N 24°33' E 062°53'510.1
2018-May-27 19:58N 24°33' E 062°59'6 9.9
2018-May-27 19:22N 24°33' E 063°05'5 9.8
2018-May-27 18:51N 24°34' E 063°11'3 9.8
2018-May-27 18:30N 24°34' E 063°14'5 9.7
2018-May-27 18:00N 24°34' E 063°20'5 9.8
2018-May-27 17:27N 24°34' E 063°25'168 9.9
2018-May-27 00:29N 24°39' E 066°30'4 9.1
2018-May-26 23:59N 24°40' E 066°35'710.1
2018-May-26 23:20N 24°41' E 066°42'410.0
2018-May-26 22:59N 24°41' E 066°46'8 0.2
2018-May-25 05:24N 24°42' E 066°55'1511.3
2018-May-25 04:03N 24°40' E 066°39'112.6
2018-May-25 04:00N 24°40' E 066°38'713.0
2018-May-25 03:30N 24°39' E 066°31'713.1
2018-May-25 02:58N 24°39' E 066°23'7513.2
2018-May-24 21:19N 24°37' E 065°01'413.3
2018-May-24 21:00N 24°37' E 064°56'2813.4
2018-May-24 18:56N 24°36' E 064°26'  
Track history (hours):
 
Tides and Currents Weather Stations Pressure Air Temp Water Temp Dewpoint Dewpoint Depression Visibility Wind Speed Wind Dir Waves Ship Positions

Selin D

Last reported at 2018-May-28 01:39 UTC. Time now 2018-Jun-20 05:44 UTC.
Position N 24°31' E 061°56'.
Warning: this ship's position is 23 days out of date.

Length 113 m; draft 7.5 m.

Type: Ship. MMSI: 215872000.

Date/timePositionNaut miles runAvg speedWind from/ knotsBaromVisibWave heightAir tempDewpointWater temp
2018-May-28 01:39N 24°31' E 061°56'24 9.9
2018-May-27 23:11N 24°31' E 062°23'2110.0
2018-May-27 21:04N 24°32' E 062°46'110.0
2018-May-27 21:00N 24°32' E 062°47'510.1
2018-May-27 20:29N 24°33' E 062°53'510.1
2018-May-27 19:58N 24°33' E 062°59'6 9.9
2018-May-27 19:22N 24°33' E 063°05'5 9.8
2018-May-27 18:51N 24°34' E 063°11'3 9.8
2018-May-27 18:30N 24°34' E 063°14'5 9.7
2018-May-27 18:00N 24°34' E 063°20'5 9.8
2018-May-27 17:27N 24°34' E 063°25'168 9.9
2018-May-27 00:29N 24°39' E 066°30'4 9.1
2018-May-26 23:59N 24°40' E 066°35'710.1
2018-May-26 23:20N 24°41' E 066°42'410.0
2018-May-26 22:59N 24°41' E 066°46'8 0.2
2018-May-25 05:24N 24°42' E 066°55'1511.3
2018-May-25 04:03N 24°40' E 066°39'112.6
2018-May-25 04:00N 24°40' E 066°38'713.0
2018-May-25 03:30N 24°39' E 066°31'713.1
2018-May-25 02:58N 24°39' E 066°23'7513.2
2018-May-24 21:19N 24°37' E 065°01'413.3
2018-May-24 21:00N 24°37' E 064°56'2813.4
2018-May-24 18:56N 24°36' E 064°26'  

Dump ship's entire track history